createdAt,value
2022-12-23T00:01:43.682Z,15.15
2022-12-23T00:04:10.853Z,13.48
2022-12-23T00:06:37.910Z,13.35
2022-12-23T00:09:04.919Z,13.73
2022-12-23T00:11:31.978Z,14.50
2022-12-23T00:14:21.465Z,12.65
2022-12-23T00:16:50.735Z,13.32
2022-12-23T00:19:18.456Z,13.27
2022-12-23T00:21:45.762Z,13.57
2022-12-23T00:24:12.778Z,11.00
2022-12-23T00:26:39.789Z,14.88
2022-12-23T00:29:07.168Z,14.15
2022-12-23T00:31:34.187Z,13.40
2022-12-23T00:34:01.191Z,15.30
2022-12-23T00:36:30.327Z,13.15
2022-12-23T00:39:17.670Z,11.70
2022-12-23T00:42:04.005Z,14.82
2022-12-23T00:44:31.312Z,14.95
2022-12-23T00:46:58.430Z,13.57
2022-12-23T00:49:43.607Z,11.82
2022-12-23T00:52:14.221Z,13.30
2022-12-23T00:54:41.337Z,13.30
2022-12-23T00:57:08.456Z,14.93
2022-12-23T00:59:35.467Z,11.88
2022-12-23T01:02:21.572Z,13.45
2022-12-23T01:05:07.017Z,14.95
2022-12-23T01:07:34.049Z,15.43
2022-12-23T01:10:01.013Z,16.70
2022-12-23T01:12:29.849Z,17.55
2022-12-23T01:14:56.832Z,16.95
2022-12-23T01:17:23.997Z,18.30
2022-12-23T01:19:51.708Z,16.55
2022-12-23T01:22:18.840Z,18.75
2022-12-23T01:24:45.844Z,20.27
2022-12-23T01:27:12.953Z,19.23
2022-12-23T01:29:40.035Z,17.35
2022-12-23T01:32:07.072Z,19.70
2022-12-23T01:34:36.990Z,16.85
2022-12-23T01:37:05.929Z,19.23
2022-12-23T01:39:33.109Z,19.55
2022-12-23T01:42:18.633Z,17.98
2022-12-23T01:44:48.406Z,19.40
2022-12-23T01:47:52.286Z,18.77
2022-12-23T01:50:51.691Z,20.42
2022-12-23T01:53:21.609Z,17.67
2022-12-23T01:55:57.358Z,23.63
2022-12-23T01:58:41.924Z,23.23
2022-12-23T02:01:28.204Z,21.42
2022-12-23T02:03:59.563Z,19.33
2022-12-23T02:06:47.893Z,20.92
2022-12-23T02:09:19.464Z,24.33
2022-12-23T02:12:01.529Z,27.80
2022-12-23T02:14:55.811Z,22.20
2022-12-23T02:17:32.691Z,23.33
2022-12-23T02:20:18.006Z,25.38
2022-12-23T02:23:13.050Z,23.88
2022-12-23T02:26:06.932Z,18.88
2022-12-23T02:28:55.262Z,20.58
2022-12-23T02:31:28.013Z,24.20
2022-12-23T02:34:25.890Z,27.25
2022-12-23T02:36:57.553Z,21.80
2022-12-23T02:39:56.321Z,18.95
2022-12-23T02:42:31.918Z,20.98
2022-12-23T02:45:07.001Z,26.55
2022-12-23T02:47:42.984Z,24.17
2022-12-23T02:50:15.509Z,25.80
2022-12-23T02:52:44.856Z,24.85
2022-12-23T02:55:21.696Z,27.10
2022-12-23T02:57:52.575Z,26.55
2022-12-23T03:00:20.025Z,25.83
2022-12-23T03:02:47.750Z,22.13
2022-12-23T03:05:50.188Z,30.20
2022-12-23T03:08:24.097Z,26.13
2022-12-23T03:11:12.297Z,27.48
2022-12-23T03:14:09.649Z,23.25
2022-12-23T03:16:58.337Z,30.23
2022-12-23T03:19:33.877Z,28.38
2022-12-23T03:22:22.574Z,26.13
2022-12-23T03:25:07.503Z,28.73
2022-12-23T03:27:39.042Z,32.03
2022-12-23T03:30:14.662Z,26.15
2022-12-23T03:33:04.290Z,29.38
2022-12-23T03:35:35.540Z,32.33
2022-12-23T03:38:04.021Z,30.85
2022-12-23T03:40:38.762Z,32.58
2022-12-23T03:43:12.649Z,23.77
2022-12-23T03:45:46.240Z,28.25
2022-12-23T03:48:32.092Z,26.70
2022-12-23T03:51:04.798Z,24.20
2022-12-23T03:53:38.212Z,26.45
2022-12-23T03:56:13.342Z,23.80
2022-12-23T03:58:56.072Z,27.55
2022-12-23T04:01:38.666Z,29.98
2022-12-23T04:04:22.179Z,23.42
2022-12-23T04:06:57.318Z,25.73
2022-12-23T04:09:27.703Z,24.02
2022-12-23T04:11:55.779Z,23.55
2022-12-23T04:14:23.099Z,26.45
2022-12-23T04:16:54.820Z,26.02
2022-12-23T04:19:22.251Z,25.25
2022-12-23T04:21:49.304Z,25.73
2022-12-23T04:24:16.379Z,30.13
2022-12-23T04:26:43.431Z,27.67
2022-12-23T04:29:10.419Z,27.65
2022-12-23T04:31:37.477Z,23.02
2022-12-23T04:34:04.477Z,28.10
2022-12-23T04:36:31.550Z,25.65
2022-12-23T04:38:58.520Z,28.73
2022-12-23T04:41:25.528Z,25.67
2022-12-23T04:43:53.367Z,28.95
2022-12-23T04:46:21.042Z,28.35
2022-12-23T04:48:48.159Z,29.77
2022-12-23T04:51:15.153Z,25.70
2022-12-23T04:53:42.238Z,26.65
2022-12-23T04:56:09.245Z,22.80
2022-12-23T04:58:36.278Z,25.73
2022-12-23T05:01:05.927Z,27.45
2022-12-23T05:03:33.284Z,32.60
2022-12-23T05:06:00.330Z,29.95
2022-12-23T05:08:27.882Z,27.90
2022-12-23T05:10:55.375Z,24.55
2022-12-23T05:13:22.694Z,28.30
2022-12-23T05:15:51.875Z,29.58
2022-12-23T05:18:20.203Z,27.88
2022-12-23T05:20:47.372Z,25.25
2022-12-23T05:23:14.429Z,20.73
2022-12-23T05:25:41.421Z,22.48
2022-12-23T05:28:09.638Z,21.33
2022-12-23T05:30:36.753Z,23.35
2022-12-23T05:33:03.940Z,21.13
2022-12-23T05:35:31.093Z,20.63
2022-12-23T05:37:58.779Z,20.95
2022-12-23T05:40:29.195Z,26.92
2022-12-23T05:42:57.876Z,24.48
2022-12-23T05:45:25.291Z,23.50
2022-12-23T05:47:52.300Z,22.42
2022-12-23T05:50:19.344Z,20.90
2022-12-23T05:52:48.894Z,21.00
2022-12-23T05:55:15.977Z,25.70
2022-12-23T05:57:43.100Z,19.40
2022-12-23T06:00:10.610Z,17.60
2022-12-23T06:02:41.126Z,20.60
2022-12-23T06:05:08.769Z,21.38
2022-12-23T06:07:35.942Z,23.88
2022-12-23T06:10:03.747Z,18.42
2022-12-23T06:12:30.939Z,21.00
2022-12-23T06:14:58.025Z,23.17
2022-12-23T06:17:25.104Z,21.08
2022-12-23T06:19:52.277Z,21.92
2022-12-23T06:22:21.809Z,21.98
2022-12-23T06:24:48.960Z,20.08
2022-12-23T06:27:16.713Z,18.83
2022-12-23T06:29:43.785Z,21.95
2022-12-23T06:32:11.054Z,24.65
2022-12-23T06:34:38.151Z,23.10
2022-12-23T06:37:05.171Z,21.08
2022-12-23T06:39:32.473Z,19.85
2022-12-23T06:41:59.512Z,18.95
2022-12-23T06:44:26.552Z,22.55
2022-12-23T06:46:53.513Z,17.27
2022-12-23T06:49:20.519Z,20.80
2022-12-23T06:51:47.505Z,22.23
2022-12-23T06:54:14.562Z,21.52
2022-12-23T06:56:41.701Z,23.13
2022-12-23T06:59:08.841Z,24.15
2022-12-23T07:01:35.938Z,27.02
2022-12-23T07:04:03.235Z,21.50
2022-12-23T07:06:30.227Z,27.55
2022-12-23T07:08:57.234Z,24.48
2022-12-23T07:11:24.242Z,23.77
2022-12-23T07:13:51.269Z,28.50
2022-12-23T07:16:18.362Z,27.63
2022-12-23T07:18:45.483Z,22.20
2022-12-23T07:21:21.336Z,24.35
2022-12-23T07:23:53.673Z,25.48
2022-12-23T07:26:20.771Z,25.77
2022-12-23T07:28:48.885Z,24.42
2022-12-23T07:31:16.418Z,23.92
2022-12-23T07:33:43.610Z,29.13
2022-12-23T07:36:10.929Z,22.90
2022-12-23T07:38:38.132Z,24.15
2022-12-23T07:41:05.339Z,22.10
2022-12-23T07:43:32.521Z,26.30
2022-12-23T07:46:00.857Z,26.60
2022-12-23T07:48:28.299Z,31.00
2022-12-23T07:51:01.570Z,48.55
2022-12-23T07:53:28.931Z,26.10
2022-12-23T07:55:57.095Z,27.00
2022-12-23T07:58:25.256Z,24.02
2022-12-23T08:00:59.646Z,27.02
2022-12-23T08:03:26.734Z,24.27
2022-12-23T08:06:06.038Z,25.98
2022-12-23T08:08:33.611Z,28.10
2022-12-23T08:11:03.121Z,29.73
2022-12-23T08:13:31.804Z,22.77
2022-12-23T08:16:00.414Z,27.13
2022-12-23T08:18:30.153Z,30.67
2022-12-23T08:21:09.029Z,43.47
2022-12-23T08:23:36.064Z,34.88
2022-12-23T08:26:14.867Z,34.47
2022-12-23T08:28:43.605Z,30.10
2022-12-23T08:31:28.909Z,27.52
2022-12-23T08:33:57.995Z,26.92
2022-12-23T08:36:28.881Z,28.67
2022-12-23T08:38:58.409Z,27.88
2022-12-23T08:43:54.712Z,31.48
2022-12-23T08:46:22.310Z,33.30
2022-12-23T08:48:50.138Z,25.88
2022-12-23T08:51:19.397Z,24.63
2022-12-23T08:53:47.555Z,30.55
2022-12-23T08:56:20.497Z,30.55
2022-12-23T08:58:49.762Z,31.10
2022-12-23T09:01:18.938Z,27.60
2022-12-23T09:03:46.608Z,34.30
2022-12-23T09:06:28.289Z,32.25
2022-12-23T09:08:56.611Z,33.63
2022-12-23T09:11:25.757Z,39.38
2022-12-23T09:13:53.403Z,42.35
2022-12-23T09:16:21.102Z,31.27
2022-12-23T09:18:48.363Z,34.55
2022-12-23T09:21:18.799Z,38.13
2022-12-23T09:23:46.320Z,43.33
2022-12-23T09:26:19.799Z,31.88
2022-12-23T09:28:47.048Z,36.97
2022-12-23T09:31:15.199Z,32.67
2022-12-23T09:33:42.809Z,39.53
2022-12-23T09:36:09.887Z,33.20
2022-12-23T09:38:38.268Z,34.72
2022-12-23T09:41:18.331Z,34.85
2022-12-23T09:43:48.005Z,36.80
2022-12-23T09:46:21.903Z,33.42
2022-12-23T09:49:06.017Z,34.95
2022-12-23T09:51:34.715Z,34.50
2022-12-23T09:54:17.121Z,36.25
2022-12-23T09:56:47.403Z,30.95
2022-12-23T09:59:35.768Z,28.88
2022-12-23T10:02:37.568Z,30.88
2022-12-23T10:05:26.317Z,30.08
2022-12-23T10:07:59.187Z,30.17
2022-12-23T10:10:45.333Z,29.92
2022-12-23T10:13:49.046Z,28.90
2022-12-23T10:16:23.840Z,30.67
2022-12-23T10:19:00.363Z,31.52
2022-12-23T10:21:32.743Z,30.73
2022-12-23T10:24:06.034Z,29.58
2022-12-23T10:26:41.738Z,24.67
2022-12-23T10:29:20.115Z,28.88
2022-12-23T10:32:26.206Z,30.08
2022-12-23T10:35:15.445Z,32.17
2022-12-23T10:38:27.361Z,30.17
2022-12-23T10:40:54.281Z,27.20
2022-12-23T10:43:35.844Z,35.72
2022-12-23T10:46:28.559Z,26.35
2022-12-23T10:49:14.152Z,30.55
2022-12-23T10:51:52.894Z,27.58
2022-12-23T10:54:33.632Z,23.00
2022-12-23T10:57:01.911Z,28.50
2022-12-23T10:59:33.763Z,26.05
2022-12-23T11:02:21.932Z,26.92
2022-12-23T11:04:50.042Z,25.25
2022-12-23T11:10:20.992Z,34.03
2022-12-23T11:12:53.369Z,32.72
2022-12-23T11:15:31.438Z,36.10
2022-12-23T11:18:19.972Z,28.50
2022-12-23T11:21:03.745Z,28.80
2022-12-23T11:23:33.790Z,30.98
2022-12-23T11:26:13.912Z,20.73
2022-12-23T11:28:49.847Z,27.05
2022-12-23T11:31:28.586Z,27.30
2022-12-23T11:34:06.367Z,31.85
2022-12-23T11:36:34.567Z,33.42
2022-12-23T11:39:27.725Z,27.20
2022-12-23T11:44:43.031Z,24.63
2022-12-23T11:47:26.525Z,30.08
2022-12-23T11:49:58.348Z,20.33
2022-12-23T11:52:29.037Z,20.83
2022-12-23T11:55:05.972Z,21.70
2022-12-23T11:57:44.520Z,23.48
2022-12-23T12:00:27.518Z,23.80
2022-12-23T12:03:01.274Z,19.30
2022-12-23T12:05:37.045Z,23.65
2022-12-23T12:08:14.078Z,19.88
2022-12-23T12:10:42.920Z,17.35
2022-12-23T12:13:21.765Z,19.98
2022-12-23T12:16:16.595Z,17.48
2022-12-23T12:18:52.072Z,18.00
2022-12-23T12:21:28.830Z,18.48
2022-12-23T12:24:18.876Z,19.20
2022-12-23T12:26:51.658Z,18.17
2022-12-23T12:29:43.177Z,19.15
2022-12-23T12:32:21.757Z,22.48
2022-12-23T12:35:13.023Z,20.80
2022-12-23T12:37:43.269Z,20.33
2022-12-23T12:40:19.196Z,17.65
2022-12-23T12:42:57.022Z,18.40
2022-12-23T12:45:39.900Z,20.30
2022-12-23T12:48:25.612Z,22.40
2022-12-23T12:51:03.724Z,18.48
2022-12-23T12:53:33.557Z,19.50
2022-12-23T12:56:11.052Z,17.52
2022-12-23T12:58:39.452Z,19.55
2022-12-23T13:01:25.986Z,18.08
2022-12-23T13:04:15.511Z,17.98
2022-12-23T13:06:45.491Z,18.38
2022-12-23T13:09:41.476Z,19.50
2022-12-23T13:12:23.205Z,17.92
2022-12-23T13:15:28.550Z,17.02
2022-12-23T13:18:04.373Z,19.30
2022-12-23T13:20:46.380Z,19.48
2022-12-23T13:23:42.927Z,19.63
2022-12-23T13:26:38.934Z,19.83
2022-12-23T13:29:27.898Z,18.67
2022-12-23T13:32:10.079Z,16.35
2022-12-23T13:34:40.138Z,24.52
2022-12-23T13:37:42.024Z,21.33
2022-12-23T13:40:43.083Z,15.65
2022-12-23T13:43:22.923Z,16.35
2022-12-23T13:45:54.142Z,16.88
2022-12-23T13:48:30.380Z,15.25
2022-12-23T13:51:07.069Z,21.17
2022-12-23T13:53:48.255Z,17.60
2022-12-23T13:56:44.380Z,14.73
2022-12-23T13:59:13.013Z,15.20
2022-12-23T14:01:50.128Z,16.42
2022-12-23T14:04:29.480Z,13.35
2022-12-23T14:07:24.105Z,16.40
2022-12-23T14:10:09.056Z,19.55
2022-12-23T14:12:39.721Z,14.60
2022-12-23T14:15:28.092Z,12.95
2022-12-23T14:18:25.552Z,12.50
2022-12-23T14:21:22.006Z,14.25
2022-12-23T14:24:26.012Z,12.70
2022-12-23T14:27:29.061Z,16.55
2022-12-23T14:30:40.463Z,13.18
2022-12-23T14:33:32.877Z,11.90
2022-12-23T14:36:23.789Z,15.48
2022-12-23T14:39:12.194Z,10.45
2022-12-23T14:41:49.954Z,13.23
2022-12-23T14:44:41.100Z,12.88
2022-12-23T14:47:32.055Z,13.15
2022-12-23T14:50:32.900Z,13.05
2022-12-23T14:53:24.573Z,13.20
2022-12-23T14:56:12.988Z,10.90
2022-12-23T14:59:02.900Z,13.80
2022-12-23T15:01:38.938Z,12.32
2022-12-23T15:04:14.535Z,13.40
2022-12-23T15:09:31.876Z,12.13
2022-12-23T15:12:05.035Z,11.48
2022-12-23T15:14:31.971Z,11.05
2022-12-23T15:16:59.078Z,10.77
2022-12-23T15:19:28.130Z,12.75
2022-12-23T15:22:22.230Z,10.85
2022-12-23T15:24:52.541Z,9.60
2022-12-23T15:27:29.734Z,12.63
2022-12-23T15:29:57.890Z,10.50
2022-12-23T15:32:26.865Z,9.65
2022-12-23T15:35:02.055Z,13.13
2022-12-23T15:37:31.410Z,9.95
2022-12-23T15:40:09.594Z,10.52
2022-12-23T15:42:47.512Z,15.30
2022-12-23T15:45:26.687Z,10.30
2022-12-23T15:47:53.689Z,11.27
2022-12-23T15:50:20.827Z,12.77
2022-12-23T15:52:50.549Z,13.98
2022-12-23T15:55:25.395Z,13.15
2022-12-23T15:57:53.046Z,11.50
2022-12-23T16:00:22.930Z,13.40
2022-12-23T16:03:01.858Z,12.40
2022-12-23T16:05:36.841Z,12.98
2022-12-23T16:08:23.171Z,18.73
2022-12-23T16:11:00.761Z,13.85
2022-12-23T16:13:27.955Z,13.55
2022-12-23T16:15:55.231Z,12.00
2022-12-23T16:18:32.809Z,15.57
2022-12-23T16:21:02.448Z,12.27
2022-12-23T16:23:32.808Z,15.63
2022-12-23T16:26:03.952Z,15.20
2022-12-23T16:28:41.488Z,15.23
2022-12-23T16:31:10.697Z,16.65
2022-12-23T16:33:45.108Z,13.88
2022-12-23T16:36:19.165Z,15.68
2022-12-23T16:38:48.021Z,16.67
2022-12-23T16:41:15.448Z,17.27
2022-12-23T16:43:51.271Z,19.30
2022-12-23T16:46:20.959Z,21.10
2022-12-23T16:49:02.383Z,18.88
2022-12-23T16:51:34.262Z,17.95
2022-12-23T16:54:01.943Z,17.75
2022-12-23T16:56:34.268Z,19.20
2022-12-23T16:59:01.735Z,20.98
2022-12-23T17:01:32.815Z,19.38
2022-12-23T17:04:00.244Z,21.23
2022-12-23T17:06:27.981Z,22.02
2022-12-23T17:08:56.775Z,22.80
2022-12-23T17:11:38.458Z,19.10
2022-12-23T17:14:11.850Z,19.80
2022-12-23T17:16:42.634Z,17.77
2022-12-23T17:19:09.697Z,18.48
2022-12-23T17:21:37.879Z,17.63
2022-12-23T17:24:10.930Z,19.58
2022-12-23T17:26:38.331Z,19.33
2022-12-23T17:29:06.124Z,19.95
2022-12-23T17:31:34.429Z,17.70
2022-12-23T17:34:02.263Z,19.27
2022-12-23T17:36:29.975Z,17.75
2022-12-23T17:38:57.078Z,19.90
2022-12-23T17:41:32.380Z,18.40
2022-12-23T17:43:59.606Z,20.50
2022-12-23T17:46:27.265Z,18.02
2022-12-23T17:48:54.368Z,22.65
2022-12-23T17:51:23.204Z,18.77
2022-12-23T17:53:57.844Z,21.30
2022-12-23T17:56:28.639Z,20.35
2022-12-23T17:58:55.885Z,20.02
2022-12-23T18:01:29.812Z,19.38
2022-12-23T18:03:58.589Z,19.65
2022-12-23T18:06:28.107Z,20.65
2022-12-23T18:08:57.187Z,21.13
2022-12-23T18:11:33.915Z,19.20
2022-12-23T18:14:01.615Z,22.00
2022-12-23T18:16:28.731Z,20.55
2022-12-23T18:18:56.091Z,21.73
2022-12-23T18:21:25.737Z,17.95
2022-12-23T18:26:21.048Z,16.23
2022-12-23T18:28:48.125Z,17.92
2022-12-23T18:31:22.393Z,20.10
2022-12-23T18:33:49.698Z,15.85
2022-12-23T18:36:25.918Z,14.68
2022-12-23T18:38:53.688Z,15.02
2022-12-23T18:41:21.504Z,17.08
2022-12-23T18:43:48.783Z,25.48
2022-12-23T18:46:15.843Z,18.38
2022-12-23T18:48:43.236Z,15.80
2022-12-23T18:51:14.702Z,13.70
2022-12-23T18:53:43.616Z,16.67
2022-12-23T18:56:21.201Z,13.57
2022-12-23T18:58:48.887Z,13.80
2022-12-23T19:01:18.299Z,13.15
2022-12-23T19:03:46.271Z,14.70
2022-12-23T19:06:15.335Z,13.15
2022-12-23T19:08:43.470Z,15.02
2022-12-23T19:11:20.890Z,18.45
2022-12-23T19:13:48.038Z,16.83
2022-12-23T19:16:20.642Z,16.38
2022-12-23T19:18:48.644Z,17.20
2022-12-23T19:21:18.032Z,17.05
2022-12-23T19:23:45.147Z,15.32
2022-12-23T19:26:14.867Z,15.65
2022-12-23T19:28:42.399Z,18.30
2022-12-23T19:31:11.372Z,15.32
2022-12-23T19:33:42.921Z,17.83
2022-12-23T19:36:23.280Z,17.67
2022-12-23T19:38:51.205Z,17.15
2022-12-23T19:41:18.744Z,16.75
2022-12-23T19:43:46.913Z,15.27
2022-12-23T19:46:15.924Z,15.30
2022-12-23T19:48:43.166Z,16.90
2022-12-23T19:51:14.115Z,14.77
2022-12-23T19:53:42.395Z,14.80
2022-12-23T19:56:15.580Z,15.15
2022-12-23T19:58:44.342Z,17.60
2022-12-23T20:01:17.266Z,11.60
2022-12-23T20:03:45.574Z,20.48
2022-12-23T20:06:21.553Z,18.45
2022-12-23T20:08:49.043Z,17.13
2022-12-23T20:11:18.398Z,15.68
2022-12-23T20:13:46.744Z,20.13
2022-12-23T20:16:13.816Z,8.95
2022-12-23T20:18:40.921Z,15.07
2022-12-23T20:21:08.083Z,15.85
2022-12-23T20:23:35.817Z,17.35
2022-12-23T20:26:03.657Z,15.43
2022-12-23T20:28:31.163Z,18.00
2022-12-23T20:31:07.523Z,19.60
2022-12-23T20:33:39.684Z,16.98
2022-12-23T20:36:07.303Z,17.50
2022-12-23T20:38:35.821Z,15.20
2022-12-23T20:41:05.775Z,14.70
2022-12-23T20:43:34.753Z,17.45
2022-12-23T20:46:03.377Z,13.40
2022-12-23T20:48:34.034Z,13.70
2022-12-23T20:51:08.221Z,15.23
2022-12-23T20:53:35.627Z,16.88
2022-12-23T20:56:08.159Z,12.15
2022-12-23T20:58:55.779Z,15.15
2022-12-23T21:01:31.489Z,13.23
2022-12-23T21:04:01.137Z,15.68
2022-12-23T21:06:30.147Z,15.18
2022-12-23T21:08:59.667Z,14.82
2022-12-23T21:14:06.150Z,14.32
2022-12-23T21:16:36.336Z,12.23
2022-12-23T21:19:04.920Z,13.63
2022-12-23T21:21:32.093Z,13.52
2022-12-23T21:24:02.333Z,11.10
2022-12-23T21:26:30.858Z,14.52
2022-12-23T21:29:00.090Z,16.95
2022-12-23T21:31:28.912Z,16.30
2022-12-23T21:33:56.593Z,14.07
2022-12-23T21:36:26.427Z,15.35
2022-12-23T21:38:53.631Z,12.15
2022-12-23T21:41:23.619Z,12.60
2022-12-23T21:43:51.392Z,12.93
2022-12-23T21:46:21.140Z,16.63
2022-12-23T21:48:49.430Z,12.70
2022-12-23T21:51:22.657Z,12.55
2022-12-23T21:53:52.465Z,13.50
2022-12-23T21:56:24.850Z,13.27
2022-12-23T21:58:59.199Z,16.00
2022-12-23T22:01:26.795Z,14.68
2022-12-23T22:03:55.243Z,14.70
2022-12-23T22:06:27.628Z,14.07
2022-12-23T22:08:56.174Z,13.43
2022-12-23T22:11:28.884Z,15.20
2022-12-23T22:13:57.680Z,14.68
2022-12-23T22:16:26.539Z,13.35
2022-12-23T22:18:54.752Z,12.20
2022-12-23T22:21:23.945Z,11.40
2022-12-23T22:23:52.134Z,13.38
2022-12-23T22:26:25.264Z,12.30
2022-12-23T22:28:55.440Z,11.50
2022-12-23T22:31:40.089Z,12.48
2022-12-23T22:34:08.601Z,14.75
2022-12-23T22:36:35.894Z,12.15
2022-12-23T22:39:03.570Z,12.82
2022-12-23T22:41:30.884Z,14.30
2022-12-23T22:43:59.105Z,13.05
2022-12-23T22:46:26.854Z,12.38
2022-12-23T22:48:54.388Z,12.18
2022-12-23T22:51:26.889Z,11.93
2022-12-23T22:53:54.142Z,9.55
2022-12-23T22:56:22.420Z,13.50
2022-12-23T22:58:51.817Z,11.73
2022-12-23T23:01:26.133Z,11.35
2022-12-23T23:03:57.074Z,9.07
2022-12-23T23:06:29.714Z,14.18
2022-12-23T23:08:57.114Z,14.55
2022-12-23T23:11:25.388Z,12.27
2022-12-23T23:13:53.234Z,12.00
2022-12-23T23:16:20.423Z,12.07
2022-12-23T23:18:47.558Z,15.43
2022-12-23T23:21:15.737Z,12.13
2022-12-23T23:23:42.887Z,10.60
2022-12-23T23:26:10.587Z,12.23
2022-12-23T23:28:39.560Z,11.45
2022-12-23T23:31:40.582Z,10.80
2022-12-23T23:33:54.583Z,12.13
2022-12-23T23:36:21.730Z,12.48
2022-12-23T23:38:48.788Z,10.93
2022-12-23T23:41:20.613Z,14.00
2022-12-23T23:43:49.455Z,9.55
2022-12-23T23:46:16.544Z,14.80
2022-12-23T23:48:43.585Z,13.20
2022-12-23T23:51:10.763Z,13.35
2022-12-23T23:53:37.779Z,13.85
2022-12-23T23:56:07.090Z,12.30
2022-12-23T23:58:35.640Z,15.98
